createdAt,value
2023-05-10T00:00:39.000Z,99531.16
2023-05-10T00:02:42.189Z,99527.09
2023-05-10T00:04:45.278Z,99532.56
2023-05-10T00:06:49.713Z,99533.00
2023-05-10T00:08:52.800Z,99526.72
2023-05-10T00:10:55.780Z,99530.22
2023-05-10T00:12:58.742Z,99529.59
2023-05-10T00:15:01.722Z,99525.13
2023-05-10T00:17:05.200Z,99525.28
2023-05-10T00:19:08.024Z,99518.94
2023-05-10T00:21:11.301Z,99515.75
2023-05-10T00:23:15.930Z,99523.94
2023-05-10T00:25:19.000Z,99516.34
2023-05-10T00:27:21.973Z,99518.09
2023-05-10T00:29:25.351Z,99524.56
2023-05-10T00:31:28.170Z,99512.94
2023-05-10T00:33:31.175Z,99517.34
2023-05-10T00:35:34.097Z,99517.28
2023-05-10T00:37:37.032Z,99515.06
2023-05-10T00:39:41.454Z,99514.75
2023-05-10T00:41:44.474Z,99516.69
2023-05-10T00:43:47.343Z,99517.31
2023-05-10T00:45:51.188Z,99508.66
2023-05-10T00:47:56.584Z,99505.13
2023-05-10T00:50:01.864Z,99506.53
2023-05-10T00:52:05.401Z,99513.38
2023-05-10T00:54:08.883Z,99509.63
2023-05-10T00:56:13.701Z,99513.97
2023-05-10T00:58:16.998Z,99506.34
2023-05-10T01:00:20.278Z,99502.66
2023-05-10T01:02:23.366Z,99505.16
2023-05-10T01:04:29.725Z,99496.44
2023-05-10T01:06:33.752Z,99493.13
2023-05-10T01:08:36.823Z,99509.28
2023-05-10T01:10:39.871Z,99500.63
2023-05-10T01:12:46.532Z,99500.75
2023-05-10T01:14:49.997Z,99500.44
2023-05-10T01:16:54.523Z,99495.28
2023-05-10T01:18:57.571Z,99504.75
2023-05-10T01:21:13.054Z,99490.22
2023-05-10T01:23:43.677Z,99488.06
2023-05-10T01:26:22.215Z,99483.53
2023-05-10T01:28:54.696Z,99487.56
2023-05-10T01:31:30.250Z,99489.69
2023-05-10T01:33:41.207Z,99484.69
2023-05-10T01:35:50.991Z,99489.41
2023-05-10T01:38:01.315Z,99485.72
2023-05-10T01:40:11.997Z,99487.38
2023-05-10T01:42:21.392Z,99480.41
2023-05-10T01:44:31.354Z,99493.44
2023-05-10T01:46:38.568Z,99487.56
2023-05-10T01:48:49.136Z,99482.03
2023-05-10T01:50:53.742Z,99479.81
2023-05-10T01:52:59.002Z,99480.63
2023-05-10T01:55:06.189Z,99474.97
2023-05-10T01:57:13.562Z,99477.53
2023-05-10T01:59:20.630Z,99477.22
2023-05-10T02:01:24.384Z,99481.00
2023-05-10T02:03:29.872Z,99475.28
2023-05-10T02:05:37.310Z,99470.97
2023-05-10T02:07:42.059Z,99471.91
2023-05-10T02:09:49.203Z,99468.13
2023-05-10T02:11:52.317Z,99469.19
2023-05-10T02:13:57.769Z,99465.88
2023-05-10T02:16:06.568Z,99467.34
2023-05-10T02:18:12.241Z,99465.31
2023-05-10T02:20:17.575Z,99467.78
2023-05-10T02:22:23.421Z,99463.34
2023-05-10T02:24:27.709Z,99458.28
2023-05-10T02:26:32.852Z,99464.22
2023-05-10T02:28:39.018Z,99466.31
2023-05-10T02:30:42.951Z,99467.41
2023-05-10T02:32:47.800Z,99458.94
2023-05-10T02:34:53.215Z,99462.25
2023-05-10T02:36:56.535Z,99461.03
2023-05-10T02:39:03.700Z,99460.34
2023-05-10T02:41:09.743Z,99462.00
2023-05-10T02:43:15.673Z,99460.59
2023-05-10T02:45:22.352Z,99465.53
2023-05-10T02:47:25.683Z,99457.25
2023-05-10T02:49:28.656Z,99459.00
2023-05-10T02:51:33.704Z,99460.84
2023-05-10T02:53:42.354Z,99462.34
2023-05-10T02:55:53.117Z,99465.03
2023-05-10T02:57:59.242Z,99461.81
2023-05-10T03:00:02.844Z,99462.38
2023-05-10T03:02:08.174Z,99461.25
2023-05-10T03:04:11.201Z,99461.16
2023-05-10T03:06:14.315Z,99465.47
2023-05-10T03:08:17.466Z,99462.44
2023-05-10T03:10:23.736Z,99457.13
2023-05-10T03:12:43.433Z,99466.97
2023-05-10T03:14:54.727Z,99457.38
2023-05-10T03:17:01.917Z,99466.44
2023-05-10T03:19:14.274Z,99462.34
2023-05-10T03:21:20.213Z,99463.66
2023-05-10T03:23:31.586Z,99462.94
2023-05-10T03:25:35.623Z,99455.66
2023-05-10T03:27:46.572Z,99457.63
2023-05-10T03:29:50.392Z,99466.44
2023-05-10T03:31:53.563Z,99464.56
2023-05-10T03:33:56.706Z,99469.41
2023-05-10T03:36:03.115Z,99457.06
2023-05-10T03:38:06.406Z,99446.94
2023-05-10T03:40:11.347Z,99454.50
2023-05-10T03:42:19.176Z,99448.81
2023-05-10T03:44:23.633Z,99451.81
2023-05-10T03:46:26.991Z,99453.06
2023-05-10T03:48:29.998Z,99455.56
2023-05-10T03:50:33.379Z,99446.66
2023-05-10T03:52:36.359Z,99450.13
2023-05-10T03:54:39.266Z,99452.88
2023-05-10T03:56:42.341Z,99453.66
2023-05-10T03:58:45.395Z,99449.53
2023-05-10T04:00:49.884Z,99452.34
2023-05-10T04:02:52.953Z,99453.97
2023-05-10T04:04:56.655Z,99443.00
2023-05-10T04:06:59.565Z,99457.00
2023-05-10T04:09:05.447Z,99452.47
2023-05-10T04:11:09.213Z,99448.19
2023-05-10T04:13:12.618Z,99449.16
2023-05-10T04:15:15.664Z,99450.53
2023-05-10T04:17:20.227Z,99452.84
2023-05-10T04:19:23.185Z,99454.59
2023-05-10T04:21:30.818Z,99448.28
2023-05-10T04:23:33.716Z,99451.94
2023-05-10T04:25:37.008Z,99455.31
2023-05-10T04:27:39.877Z,99453.34
2023-05-10T04:29:42.976Z,99453.94
2023-05-10T04:31:46.074Z,99460.97
2023-05-10T04:33:51.273Z,99453.97
2023-05-10T04:35:54.305Z,99455.44
2023-05-10T04:37:57.283Z,99460.16
2023-05-10T04:40:01.371Z,99455.22
2023-05-10T04:42:06.943Z,99448.03
2023-05-10T04:44:09.793Z,99461.22
2023-05-10T04:46:12.876Z,99447.81
2023-05-10T04:48:15.753Z,99448.63
2023-05-10T04:50:20.354Z,99459.13
2023-05-10T04:52:23.227Z,99453.34
2023-05-10T04:54:26.292Z,99456.22
2023-05-10T04:56:29.190Z,99451.44
2023-05-10T04:58:32.270Z,99450.00
2023-05-10T05:00:35.220Z,99454.25
2023-05-10T05:02:38.330Z,99451.97
2023-05-10T05:04:41.413Z,99451.94
2023-05-10T05:06:46.023Z,99450.50
2023-05-10T05:08:50.691Z,99438.72
2023-05-10T05:10:53.824Z,99443.00
2023-05-10T05:12:56.726Z,99449.34
2023-05-10T05:14:59.790Z,99440.94
2023-05-10T05:17:02.849Z,99447.69
2023-05-10T05:19:05.847Z,99452.53
2023-05-10T05:21:16.483Z,99448.78
2023-05-10T05:23:22.053Z,99447.03
2023-05-10T05:25:25.004Z,99448.22
2023-05-10T05:27:29.136Z,99457.19
2023-05-10T05:29:32.133Z,99446.56
2023-05-10T05:31:35.226Z,99448.13
2023-05-10T05:33:38.157Z,99442.75
2023-05-10T05:35:41.282Z,99442.44
2023-05-10T05:37:44.272Z,99444.31
2023-05-10T05:39:49.103Z,99442.88
2023-05-10T05:41:52.000Z,99439.72
2023-05-10T05:43:54.995Z,99441.44
2023-05-10T05:45:59.353Z,99446.03
2023-05-10T05:48:02.431Z,99437.66
2023-05-10T05:50:06.381Z,99435.91
2023-05-10T05:52:09.448Z,99437.75
2023-05-10T05:54:12.422Z,99442.09
2023-05-10T05:56:16.831Z,99440.16
2023-05-10T05:58:19.732Z,99443.13
2023-05-10T06:00:23.047Z,99449.34
2023-05-10T06:02:26.305Z,99449.47
2023-05-10T06:04:29.444Z,99443.88
2023-05-10T06:06:33.504Z,99451.94
2023-05-10T06:08:36.809Z,99438.69
2023-05-10T06:10:39.764Z,99445.34
2023-05-10T06:12:44.424Z,99439.13
2023-05-10T06:14:47.515Z,99443.50
2023-05-10T06:16:50.510Z,99433.25
2023-05-10T06:18:53.672Z,99435.88
2023-05-10T06:20:56.687Z,99443.72
2023-05-10T06:22:59.943Z,99437.84
2023-05-10T06:25:03.468Z,99440.63
2023-05-10T06:27:07.188Z,99439.50
2023-05-10T06:29:11.563Z,99440.69
2023-05-10T06:31:14.726Z,99443.50
2023-05-10T06:33:17.720Z,99446.59
2023-05-10T06:35:20.701Z,99441.91
2023-05-10T06:37:23.714Z,99439.59
2023-05-10T06:39:26.565Z,99449.72
2023-05-10T06:41:29.572Z,99447.47
2023-05-10T06:43:32.530Z,99441.88
2023-05-10T06:45:37.107Z,99453.09
2023-05-10T06:47:40.010Z,99444.22
2023-05-10T06:49:42.996Z,99444.91
2023-05-10T06:51:46.495Z,99452.22
2023-05-10T06:53:49.499Z,99449.13
2023-05-10T06:55:52.341Z,99446.84
2023-05-10T06:57:55.475Z,99447.56
2023-05-10T06:59:58.485Z,99445.44
2023-05-10T07:02:02.953Z,99446.84
2023-05-10T07:04:06.277Z,99442.81
2023-05-10T07:06:15.628Z,99443.06
2023-05-10T07:08:21.543Z,99437.66
2023-05-10T07:10:24.580Z,99435.75
2023-05-10T07:12:27.783Z,99432.69
2023-05-10T07:14:30.816Z,99431.06
2023-05-10T07:16:34.372Z,99437.63
2023-05-10T07:18:39.268Z,99437.38
2023-05-10T07:20:42.273Z,99441.75
2023-05-10T07:22:45.217Z,99436.28
2023-05-10T07:24:48.084Z,99442.47
2023-05-10T07:26:51.191Z,99440.38
2023-05-10T07:28:54.035Z,99440.66
2023-05-10T07:30:57.346Z,99428.38
2023-05-10T07:33:00.584Z,99434.66
2023-05-10T07:35:05.846Z,99429.97
2023-05-10T07:37:08.790Z,99431.31
2023-05-10T07:39:16.184Z,99428.59
2023-05-10T07:41:22.472Z,99426.88
2023-05-10T07:43:25.496Z,99426.56
2023-05-10T07:45:28.528Z,99425.53
2023-05-10T07:47:31.506Z,99425.16
2023-05-10T07:49:34.529Z,99429.47
2023-05-10T07:51:38.943Z,99414.13
2023-05-10T07:53:41.879Z,99411.84
2023-05-10T07:55:45.165Z,99416.88
2023-05-10T07:57:48.560Z,99426.22
2023-05-10T07:59:51.477Z,99427.81
2023-05-10T08:01:54.380Z,99421.19
2023-05-10T08:03:57.512Z,99418.06
2023-05-10T08:06:00.977Z,99407.34
2023-05-10T08:08:05.836Z,99414.91
2023-05-10T08:10:12.391Z,99416.22
2023-05-10T08:12:15.409Z,99408.38
2023-05-10T08:14:18.390Z,99410.94
2023-05-10T08:16:21.665Z,99414.50
2023-05-10T08:18:24.828Z,99404.84
2023-05-10T08:20:28.148Z,99409.34
2023-05-10T08:22:31.040Z,99402.53
2023-05-10T08:24:39.551Z,99404.75
2023-05-10T08:26:42.440Z,99413.28
2023-05-10T08:28:45.578Z,99400.03
2023-05-10T08:30:48.598Z,99409.75
2023-05-10T08:32:51.582Z,99406.31
2023-05-10T08:34:54.552Z,99408.03
2023-05-10T08:36:57.573Z,99410.34
2023-05-10T08:39:00.667Z,99416.66
2023-05-10T08:41:06.639Z,99414.50
2023-05-10T08:43:13.109Z,99418.16
2023-05-10T08:45:18.488Z,99407.63
2023-05-10T08:47:21.678Z,99415.16
2023-05-10T08:49:27.710Z,99411.16
2023-05-10T08:51:34.455Z,99410.00
2023-05-10T08:53:38.898Z,99406.72
2023-05-10T08:55:44.154Z,99408.06
2023-05-10T08:57:48.873Z,99415.06
2023-05-10T08:59:52.202Z,99405.16
2023-05-10T09:01:57.208Z,99403.66
2023-05-10T09:04:00.442Z,99409.16
2023-05-10T09:06:04.052Z,99412.66
2023-05-10T09:08:08.167Z,99415.72
2023-05-10T09:10:12.766Z,99413.13
2023-05-10T09:12:17.019Z,99405.28
2023-05-10T09:14:21.975Z,99404.84
2023-05-10T09:16:25.807Z,99406.00
2023-05-10T09:18:28.894Z,99406.22
2023-05-10T09:20:32.403Z,99404.22
2023-05-10T09:22:35.652Z,99405.19
2023-05-10T09:24:43.712Z,99410.34
2023-05-10T09:26:50.408Z,99408.75
2023-05-10T09:28:54.652Z,99401.84
2023-05-10T09:30:59.208Z,99399.19
2023-05-10T09:33:02.296Z,99418.38
2023-05-10T09:35:09.791Z,99410.59
2023-05-10T09:37:12.992Z,99415.59
2023-05-10T09:39:16.121Z,99403.66
2023-05-10T09:41:20.182Z,99404.25
2023-05-10T09:43:23.153Z,99408.69
2023-05-10T09:45:27.491Z,99408.50
2023-05-10T09:47:34.076Z,99401.41
2023-05-10T09:49:37.010Z,99397.28
2023-05-10T09:51:39.971Z,99397.06
2023-05-10T09:53:43.004Z,99387.72
2023-05-10T09:55:47.232Z,99399.53
2023-05-10T09:57:50.803Z,99404.41
2023-05-10T09:59:55.907Z,99404.72
2023-05-10T10:02:00.875Z,99395.19
2023-05-10T10:04:07.137Z,99397.38
2023-05-10T10:06:15.979Z,99390.44
2023-05-10T10:08:29.986Z,99386.00
2023-05-10T10:10:34.239Z,99386.50
2023-05-10T10:12:37.311Z,99382.78
2023-05-10T10:14:40.684Z,99380.06
2023-05-10T10:16:55.435Z,99384.19
2023-05-10T10:19:08.324Z,99379.00
2023-05-10T10:21:11.616Z,99384.38
2023-05-10T10:23:17.161Z,99383.41
2023-05-10T10:25:23.396Z,99374.31
2023-05-10T10:27:35.366Z,99387.06
2023-05-10T10:29:46.976Z,99383.69
2023-05-10T10:31:59.928Z,99380.91
2023-05-10T10:34:08.165Z,99381.53
2023-05-10T10:36:14.595Z,99376.31
2023-05-10T10:38:18.622Z,99372.88
2023-05-10T10:40:28.374Z,99369.13
2023-05-10T10:42:47.532Z,99355.13
2023-05-10T10:44:50.430Z,99366.53
2023-05-10T10:47:06.798Z,99363.72
2023-05-10T10:49:12.895Z,99371.25
2023-05-10T10:51:17.583Z,99371.19
2023-05-10T10:53:20.535Z,99372.34
2023-05-10T10:55:27.872Z,99359.50
2023-05-10T10:57:33.845Z,99366.06
2023-05-10T10:59:36.933Z,99357.53
2023-05-10T11:01:45.861Z,99368.34
2023-05-10T11:04:21.644Z,99353.94
2023-05-10T11:06:35.643Z,99358.22
2023-05-10T11:08:47.418Z,99350.50
2023-05-10T11:11:08.439Z,99353.88
2023-05-10T11:13:14.149Z,99355.69
2023-05-10T11:15:17.806Z,99358.91
2023-05-10T11:17:25.186Z,99343.19
2023-05-10T11:19:29.848Z,99345.88
2023-05-10T11:21:35.983Z,99349.69
2023-05-10T11:23:52.853Z,99353.50
2023-05-10T11:25:56.437Z,99348.38
2023-05-10T11:28:04.035Z,99346.81
2023-05-10T11:30:08.044Z,99346.53
2023-05-10T11:32:11.220Z,99345.69
2023-05-10T11:34:25.325Z,99349.16
2023-05-10T11:36:30.714Z,99345.25
2023-05-10T11:38:35.043Z,99347.72
2023-05-10T11:40:39.110Z,99352.38
2023-05-10T11:42:42.173Z,99350.91
2023-05-10T11:44:48.383Z,99344.53
2023-05-10T11:46:51.686Z,99349.00
2023-05-10T11:48:59.175Z,99345.84
2023-05-10T11:51:03.425Z,99343.13
2023-05-10T11:53:06.672Z,99341.91
2023-05-10T11:55:11.297Z,99336.84
2023-05-10T11:57:14.386Z,99346.38
2023-05-10T11:59:17.307Z,99336.00
2023-05-10T12:01:20.432Z,99349.75
2023-05-10T12:03:23.626Z,99336.25
2023-05-10T12:05:27.027Z,99343.97
2023-05-10T12:07:30.053Z,99335.28
2023-05-10T12:09:43.365Z,99333.16
2023-05-10T12:11:48.412Z,99343.41
2023-05-10T12:13:52.207Z,99345.09
2023-05-10T12:15:55.150Z,99340.31
2023-05-10T12:17:58.535Z,99340.69
2023-05-10T12:20:16.129Z,99336.38
2023-05-10T12:22:22.475Z,99336.38
2023-05-10T12:24:26.722Z,99331.88
2023-05-10T12:26:30.487Z,99340.00
2023-05-10T12:28:35.382Z,99338.50
2023-05-10T12:30:38.972Z,99344.84
2023-05-10T12:32:42.878Z,99339.88
2023-05-10T12:34:48.898Z,99340.50
2023-05-10T12:36:53.168Z,99340.69
2023-05-10T12:39:04.396Z,99334.84
2023-05-10T12:41:08.657Z,99333.41
2023-05-10T12:43:11.657Z,99327.88
2023-05-10T12:45:16.065Z,99322.78
2023-05-10T12:47:19.156Z,99329.69
2023-05-10T12:49:22.325Z,99325.09
2023-05-10T12:51:25.299Z,99318.19
2023-05-10T12:53:28.486Z,99314.91
2023-05-10T12:55:31.513Z,99319.28
2023-05-10T12:57:34.594Z,99319.84
2023-05-10T12:59:38.369Z,99321.16
2023-05-10T13:01:42.899Z,99316.50
2023-05-10T13:03:46.114Z,99315.91
2023-05-10T13:05:50.463Z,99318.84
2023-05-10T13:07:53.486Z,99312.34
2023-05-10T13:09:56.475Z,99311.09
2023-05-10T13:11:59.493Z,99316.94
2023-05-10T13:14:04.441Z,99308.34
2023-05-10T13:16:08.211Z,99306.63
2023-05-10T13:18:12.667Z,99301.44
2023-05-10T13:20:16.186Z,99299.72
2023-05-10T13:22:28.720Z,99306.53
2023-05-10T13:24:39.719Z,99303.38
2023-05-10T13:26:42.751Z,99301.31
2023-05-10T13:28:47.321Z,99301.09
2023-05-10T13:30:50.322Z,99306.22
2023-05-10T13:32:53.308Z,99296.50
2023-05-10T13:34:58.182Z,99299.63
2023-05-10T13:37:01.283Z,99290.56
2023-05-10T13:39:06.509Z,99297.69
2023-05-10T13:41:09.780Z,99290.56
2023-05-10T13:43:12.745Z,99285.28
2023-05-10T13:45:16.313Z,99292.44
2023-05-10T13:47:20.355Z,99281.50
2023-05-10T13:49:23.459Z,99274.53
2023-05-10T13:51:27.939Z,99272.31
2023-05-10T13:53:30.974Z,99269.66
2023-05-10T13:55:33.898Z,99273.56
2023-05-10T13:57:38.299Z,99263.81
2023-05-10T13:59:41.271Z,99270.53
2023-05-10T14:01:44.965Z,99258.34
2023-05-10T14:03:47.929Z,99264.03
2023-05-10T14:05:51.168Z,99264.19
2023-05-10T14:07:55.636Z,99257.84
2023-05-10T14:09:58.571Z,99258.88
2023-05-10T14:12:01.507Z,99255.25
2023-05-10T14:14:04.834Z,99252.63
2023-05-10T14:16:08.371Z,99253.97
2023-05-10T14:18:11.449Z,99260.75
2023-05-10T14:20:14.355Z,99250.34
2023-05-10T14:22:17.326Z,99248.22
2023-05-10T14:24:21.683Z,99245.09
2023-05-10T14:26:24.773Z,99243.50
2023-05-10T14:28:27.740Z,99247.00
2023-05-10T14:30:31.906Z,99243.84
2023-05-10T14:32:35.274Z,99245.22
2023-05-10T14:34:38.506Z,99252.25
2023-05-10T14:36:41.553Z,99245.69
2023-05-10T14:38:44.814Z,99236.78
2023-05-10T14:40:49.239Z,99244.38
2023-05-10T14:42:54.124Z,99243.50
2023-05-10T14:44:57.024Z,99243.97
2023-05-10T14:47:00.072Z,99240.44
2023-05-10T14:49:03.075Z,99242.00
2023-05-10T14:51:06.031Z,99237.41
2023-05-10T14:53:08.853Z,99243.19
2023-05-10T14:55:11.964Z,99238.16
2023-05-10T14:57:16.590Z,99245.59
2023-05-10T14:59:19.826Z,99251.63
2023-05-10T15:01:23.235Z,99248.06
2023-05-10T15:03:27.040Z,99254.06
2023-05-10T15:05:30.349Z,99247.38
2023-05-10T15:07:33.627Z,99244.06
2023-05-10T15:09:36.416Z,99239.63
2023-05-10T15:11:39.229Z,99248.72
2023-05-10T15:13:43.567Z,99241.31
2023-05-10T15:15:46.636Z,99240.00
2023-05-10T15:17:49.748Z,99244.13
2023-05-10T15:19:52.621Z,99248.13
2023-05-10T15:21:55.517Z,99247.13
2023-05-10T15:23:58.336Z,99234.56
2023-05-10T15:26:02.135Z,99243.59
2023-05-10T15:28:05.927Z,99239.91
2023-05-10T15:30:11.827Z,99235.00
2023-05-10T15:32:14.655Z,99238.22
2023-05-10T15:34:18.146Z,99237.06
2023-05-10T15:36:21.089Z,99239.38
2023-05-10T15:38:23.916Z,99243.41
2023-05-10T15:40:27.107Z,99244.22
2023-05-10T15:42:31.132Z,99246.44
2023-05-10T15:44:36.496Z,99238.56
2023-05-10T15:46:40.987Z,99234.94
2023-05-10T15:48:43.848Z,99235.59
2023-05-10T15:50:46.746Z,99241.91
2023-05-10T15:52:49.927Z,99235.94
2023-05-10T15:54:52.789Z,99241.44
2023-05-10T15:56:55.853Z,99237.72
2023-05-10T15:58:58.793Z,99234.94
2023-05-10T16:01:01.699Z,99235.53
2023-05-10T16:03:06.924Z,99232.53
2023-05-10T16:05:10.521Z,99242.53
2023-05-10T16:07:13.359Z,99240.09
2023-05-10T16:09:16.765Z,99235.00
2023-05-10T16:11:19.773Z,99238.31
2023-05-10T16:13:22.750Z,99239.41
2023-05-10T16:15:25.600Z,99235.63
2023-05-10T16:17:28.614Z,99235.72
2023-05-10T16:19:33.024Z,99231.41
2023-05-10T16:21:36.210Z,99240.38
2023-05-10T16:23:39.140Z,99239.56
2023-05-10T16:25:42.273Z,99238.50
2023-05-10T16:27:45.387Z,99239.63
2023-05-10T16:29:48.481Z,99241.78
2023-05-10T16:31:51.324Z,99242.88
2023-05-10T16:33:54.193Z,99242.06
2023-05-10T16:35:58.686Z,99240.94
2023-05-10T16:38:01.724Z,99241.81
2023-05-10T16:40:05.601Z,99243.44
2023-05-10T16:42:08.531Z,99244.81
2023-05-10T16:44:11.373Z,99241.53
2023-05-10T16:46:14.344Z,99235.78
2023-05-10T16:48:17.471Z,99237.69
2023-05-10T16:50:20.431Z,99240.13
2023-05-10T16:52:24.781Z,99244.47
2023-05-10T16:54:29.150Z,99245.25
2023-05-10T16:56:32.180Z,99247.41
2023-05-10T16:58:35.091Z,99246.03
2023-05-10T17:00:37.998Z,99249.19
2023-05-10T17:02:40.960Z,99259.25
2023-05-10T17:04:43.989Z,99251.88
2023-05-10T17:06:47.067Z,99259.25
2023-05-10T17:08:51.975Z,99251.06
2023-05-10T17:10:54.839Z,99257.59
2023-05-10T17:12:57.734Z,99259.19
2023-05-10T17:15:00.920Z,99252.72
2023-05-10T17:17:03.930Z,99248.50
2023-05-10T17:19:07.023Z,99252.97
2023-05-10T17:21:10.016Z,99261.38
2023-05-10T17:23:13.014Z,99257.78
2023-05-10T17:25:17.732Z,99261.63
2023-05-10T17:27:20.793Z,99264.31
2023-05-10T17:29:23.622Z,99262.00
2023-05-10T17:31:26.536Z,99258.97
2023-05-10T17:33:29.473Z,99262.44
2023-05-10T17:35:32.704Z,99272.44
2023-05-10T17:37:35.686Z,99265.88
2023-05-10T17:39:39.993Z,99275.88
2023-05-10T17:41:44.494Z,99264.34
2023-05-10T17:43:47.303Z,99276.81
2023-05-10T17:45:50.565Z,99274.59
2023-05-10T17:47:53.713Z,99268.47
2023-05-10T17:49:56.574Z,99266.25
2023-05-10T17:51:59.518Z,99282.41
2023-05-10T17:54:02.551Z,99281.25
2023-05-10T17:56:05.952Z,99285.63
2023-05-10T17:58:11.849Z,99283.28
2023-05-10T18:00:16.049Z,99290.47
2023-05-10T18:02:18.920Z,99283.94
2023-05-10T18:04:22.303Z,99287.91
2023-05-10T18:06:25.384Z,99282.41
2023-05-10T18:08:30.748Z,99294.59
2023-05-10T18:10:34.174Z,99293.19
2023-05-10T18:12:37.100Z,99299.28
2023-05-10T18:14:41.754Z,99297.72
2023-05-10T18:16:45.245Z,99299.13
2023-05-10T18:18:48.198Z,99301.91
2023-05-10T18:20:56.798Z,99305.09
2023-05-10T18:22:59.670Z,99301.19
2023-05-10T18:25:02.647Z,99307.81
2023-05-10T18:27:06.095Z,99306.88
2023-05-10T18:29:09.351Z,99306.50
2023-05-10T18:31:13.619Z,99317.69
2023-05-10T18:33:16.685Z,99312.78
2023-05-10T18:35:19.943Z,99311.59
2023-05-10T18:37:23.358Z,99316.84
2023-05-10T18:39:26.537Z,99327.81
2023-05-10T18:41:29.887Z,99323.75
2023-05-10T18:43:34.738Z,99332.66
2023-05-10T18:45:39.289Z,99329.94
2023-05-10T18:47:43.550Z,99342.09
2023-05-10T18:49:46.669Z,99342.47
2023-05-10T18:51:49.489Z,99342.50
2023-05-10T18:53:52.438Z,99345.03
2023-05-10T18:56:01.535Z,99353.59
2023-05-10T18:58:04.328Z,99353.94
2023-05-10T19:00:08.977Z,99349.28
2023-05-10T19:02:11.977Z,99355.72
2023-05-10T19:04:16.468Z,99358.66
2023-05-10T19:06:19.380Z,99348.59
2023-05-10T19:08:22.355Z,99363.00
2023-05-10T19:10:25.254Z,99364.59
2023-05-10T19:12:28.730Z,99368.47
2023-05-10T19:14:31.691Z,99358.09
2023-05-10T19:16:34.735Z,99360.41
2023-05-10T19:18:38.842Z,99362.88
2023-05-10T19:20:43.328Z,99369.44
2023-05-10T19:23:02.250Z,99373.69
2023-05-10T19:25:12.042Z,99374.00
2023-05-10T19:27:14.947Z,99365.66
2023-05-10T19:29:17.787Z,99373.09
2023-05-10T19:31:21.953Z,99375.19
2023-05-10T19:33:25.050Z,99372.13
2023-05-10T19:35:28.217Z,99375.25
2023-05-10T19:37:32.553Z,99370.69
2023-05-10T19:39:35.717Z,99373.03
2023-05-10T19:41:38.688Z,99377.16
2023-05-10T19:43:42.105Z,99380.53
2023-05-10T19:45:44.928Z,99371.78
2023-05-10T19:47:47.934Z,99373.88
2023-05-10T19:49:50.934Z,99375.94
2023-05-10T19:51:53.976Z,99379.31
2023-05-10T19:53:58.523Z,99385.88
2023-05-10T19:56:06.695Z,99381.91
2023-05-10T19:58:09.518Z,99390.31
2023-05-10T20:00:13.617Z,99392.06
2023-05-10T20:02:16.388Z,99389.38
2023-05-10T20:04:19.149Z,99391.00
2023-05-10T20:06:21.899Z,99401.66
2023-05-10T20:08:25.335Z,99397.69
2023-05-10T20:10:29.724Z,99393.91
2023-05-10T20:12:32.857Z,99397.19
2023-05-10T20:14:35.697Z,99396.13
2023-05-10T20:16:38.634Z,99399.50
2023-05-10T20:18:41.474Z,99396.66
2023-05-10T20:20:44.379Z,99409.63
2023-05-10T20:22:47.677Z,99399.50
2023-05-10T20:24:50.797Z,99401.94
2023-05-10T20:26:55.400Z,99405.94
2023-05-10T20:28:58.206Z,99417.91
2023-05-10T20:31:02.270Z,99414.88
2023-05-10T20:33:05.425Z,99408.25
2023-05-10T20:35:08.937Z,99409.22
2023-05-10T20:37:11.830Z,99412.34
2023-05-10T20:39:15.381Z,99406.22
2023-05-10T20:41:18.383Z,99414.13
2023-05-10T20:43:22.628Z,99407.19
2023-05-10T20:45:25.492Z,99410.63
2023-05-10T20:47:28.458Z,99408.88
2023-05-10T20:49:31.449Z,99414.88
2023-05-10T20:51:34.294Z,99410.88
2023-05-10T20:53:37.252Z,99407.59
2023-05-10T20:55:40.429Z,99415.81
2023-05-10T20:57:43.365Z,99409.94
2023-05-10T20:59:47.760Z,99412.06
2023-05-10T21:01:51.107Z,99413.00
2023-05-10T21:03:53.935Z,99417.69
2023-05-10T21:05:56.995Z,99415.91
2023-05-10T21:07:59.730Z,99418.53
2023-05-10T21:10:02.551Z,99420.16
2023-05-10T21:12:05.888Z,99416.88
2023-05-10T21:14:08.978Z,99412.09
2023-05-10T21:16:13.230Z,99417.81
2023-05-10T21:18:16.358Z,99420.41
2023-05-10T21:20:19.597Z,99422.28
2023-05-10T21:22:22.519Z,99423.47
2023-05-10T21:24:27.379Z,99421.13
2023-05-10T21:26:30.381Z,99421.25
2023-05-10T21:28:33.327Z,99424.13
2023-05-10T21:30:36.372Z,99426.25
2023-05-10T21:32:40.752Z,99422.88
2023-05-10T21:34:43.645Z,99430.28
2023-05-10T21:36:46.442Z,99429.66
2023-05-10T21:38:50.853Z,99422.25
2023-05-10T21:40:53.899Z,99423.28
2023-05-10T21:42:56.882Z,99422.69
2023-05-10T21:44:59.675Z,99423.72
2023-05-10T21:47:02.876Z,99421.66
2023-05-10T21:49:16.373Z,99416.94
2023-05-10T21:51:19.313Z,99427.97
2023-05-10T21:53:22.924Z,99424.69
2023-05-10T21:55:25.951Z,99430.91
2023-05-10T21:57:28.721Z,99431.09
2023-05-10T21:59:31.541Z,99428.56
2023-05-10T22:01:34.367Z,99425.50
2023-05-10T22:03:37.409Z,99432.44
2023-05-10T22:05:41.685Z,99428.84
2023-05-10T22:07:44.548Z,99435.44
2023-05-10T22:09:52.552Z,99432.00
2023-05-10T22:11:55.427Z,99430.63
2023-05-10T22:13:59.015Z,99440.06
2023-05-10T22:16:02.029Z,99439.25
2023-05-10T22:18:05.204Z,99447.78
2023-05-10T22:20:09.762Z,99440.03
2023-05-10T22:22:14.017Z,99444.16
2023-05-10T22:24:16.826Z,99447.91
2023-05-10T22:26:19.718Z,99443.19
2023-05-10T22:28:22.582Z,99441.09
2023-05-10T22:30:25.640Z,99446.44
2023-05-10T22:32:28.511Z,99440.66
2023-05-10T22:34:31.417Z,99439.94
2023-05-10T22:36:34.425Z,99443.59
2023-05-10T22:38:38.622Z,99447.44
2023-05-10T22:40:42.003Z,99449.56
2023-05-10T22:42:45.190Z,99438.63
2023-05-10T22:44:48.208Z,99450.44
2023-05-10T22:46:51.138Z,99449.56
2023-05-10T22:48:54.224Z,99448.41
2023-05-10T22:50:57.060Z,99447.50
2023-05-10T22:52:59.911Z,99459.00
2023-05-10T22:55:04.509Z,99456.94
2023-05-10T22:57:07.376Z,99453.38
2023-05-10T22:59:10.658Z,99458.69
2023-05-10T23:01:14.059Z,99459.63
2023-05-10T23:03:17.026Z,99463.44
2023-05-10T23:05:19.897Z,99465.25
2023-05-10T23:07:22.930Z,99458.53
2023-05-10T23:09:25.958Z,99466.19
2023-05-10T23:11:30.157Z,99460.94
2023-05-10T23:13:33.058Z,99463.44
2023-05-10T23:15:36.597Z,99462.38
2023-05-10T23:17:39.535Z,99466.31
2023-05-10T23:19:42.281Z,99464.47
2023-05-10T23:21:45.118Z,99466.75
2023-05-10T23:23:48.165Z,99467.78
2023-05-10T23:25:51.687Z,99467.06
2023-05-10T23:27:55.948Z,99463.97
2023-05-10T23:29:58.938Z,99471.13
2023-05-10T23:32:01.828Z,99466.81
2023-05-10T23:34:04.908Z,99464.78
2023-05-10T23:36:08.189Z,99470.75
2023-05-10T23:38:11.110Z,99463.72
2023-05-10T23:40:14.685Z,99469.91
2023-05-10T23:42:17.568Z,99468.44
2023-05-10T23:44:21.872Z,99464.59
2023-05-10T23:46:25.015Z,99461.72
2023-05-10T23:48:27.984Z,99461.88
2023-05-10T23:50:30.958Z,99462.91
2023-05-10T23:52:33.912Z,99463.75
2023-05-10T23:54:36.804Z,99458.78
2023-05-10T23:56:39.607Z,99463.56
2023-05-10T23:58:42.915Z,99462.94
